CSUN New Campus Station -PST Time - Most Recent Data on bottom of page




           Date/Time      Avg      Avg      Max     Wind      Avg      Max      Min      Avg      Avg    Total      Avg     Batt
                         Wind     Wind     Wind      Dir     Temp     Temp     Temp       RH      Bar     Rain    Solar     Volt
                      Spd MPH      Dir  Spd MPH   at Max    Deg_F    Deg_F    Deg_F        % Press_mb   Inches     W/m2      Min
--------------------------------------------------------------------------------------------------------------------------------
    04/24/2015 00:00      1.0      151      2.0      156     56.1     56.4     56.0       72     1012     0.00        0     13.4
    04/24/2015 00:15      0.1      161      1.1      167     56.1     56.3     55.9       73     1012     0.00        0     13.4
    04/24/2015 00:30      0.4      202      2.6      187     56.1     56.3     55.8       74     1012     0.00        0     13.4
    04/24/2015 00:45      0.4      242      3.2      256     55.9     56.1     55.5       74     1012     0.00        0     13.4
    04/24/2015 01:00      0.2      219      2.0      245     55.6     55.9     55.3       75     1012     0.00        0     13.4
    04/24/2015 01:15      1.2      263      4.4      251     55.6     55.9     55.3       73     1012     0.00        0     13.4
    04/24/2015 01:30      1.5      267      5.0      248     55.7     56.0     55.5       72     1012     0.00        0     13.4
    04/24/2015 01:45      0.9      274      3.4      241     55.7     55.9     55.5       71     1012     0.00        0     13.4
    04/24/2015 02:00      0.7      272      3.2      265     55.7     55.9     55.5       71     1012     0.00        0     13.4
    04/24/2015 02:15      0.0      313      1.1      306     55.7     56.0     55.5       71     1012     0.00        0     13.4
    04/24/2015 02:30      0.1      253      1.3      257     55.7     56.0     55.5       70     1012     0.00        0     13.4
    04/24/2015 02:45      0.0        0      0.0      234     55.8     55.9     55.6       70     1012     0.00        0     13.4
    04/24/2015 03:00      0.2      258      1.0      257     55.7     55.8     55.5       71     1012     0.00        0     13.4
    04/24/2015 03:15      0.0        0      0.0      271     55.7     55.9     55.5       72     1012     0.00        0     13.4
    04/24/2015 03:30      0.0        0      0.0      177     55.7     55.9     55.5       71     1012     0.00        0     13.4
    04/24/2015 03:45      0.0      252      0.8      251     55.7     56.0     55.6       71     1012     0.00        0     13.4
    04/24/2015 04:00      0.0      171      0.6      167     55.9     56.1     55.6       72     1012     0.00        0     13.4
    04/24/2015 04:15      0.2      259      2.1      258     55.9     56.1     55.7       71     1012     0.00        0     13.4
    04/24/2015 04:30      0.1      259      1.8      250     55.9     56.1     55.7       71     1012     0.00        0     13.4
    04/24/2015 04:45      0.0        0      0.0      289     55.9     56.1     55.8       71     1012     0.00        0     13.4
    04/24/2015 05:00      0.0        0      0.0      291     55.9     56.1     55.7       72     1012     0.00        0     13.4
    04/24/2015 05:15      0.2      258      1.6      249     55.9     56.1     55.6       71     1012     0.00        1     13.4
    04/24/2015 05:30      0.0      252      0.4      261     56.0     56.2     55.8       71     1012     0.00        7     13.4
    04/24/2015 05:45      0.2      155      1.5      161     56.1     56.4     55.9       71     1012     0.00       26     13.4
    04/24/2015 06:00      0.4      148      1.6      152     56.3     56.4     56.1       71     1012     0.00       30     13.4
    04/24/2015 06:15      0.6      149      1.9      145     56.1     56.4     56.0       71     1013     0.00       34     13.4
    04/24/2015 06:30      0.0      149      0.9      176     56.5     57.0     56.1       69     1013     0.00      104     13.4
    04/24/2015 06:45      0.4      189      3.2      183     57.3     57.7     56.8       68     1013     0.00      126     13.4
    04/24/2015 07:00      1.0      175      3.6      177     57.7     58.1     57.4       67     1013     0.00      159     13.4
    04/24/2015 07:15      2.1      134      4.7      160     58.3     58.6     57.8       64     1013     0.00      172     13.4
    04/24/2015 07:30      2.2      121      6.9       78     59.0     59.8     58.1       62     1013     0.00      314     13.4
    04/24/2015 07:45      3.0      102      7.4       93     60.0     60.5     59.2       61     1013     0.00      441     13.3
    04/24/2015 08:00      4.1      106      9.9      129     60.1     60.6     59.6       61     1014     0.00      400     13.3
    04/24/2015 08:15      4.1      124      8.4      144     60.5     61.2     60.0       60     1014     0.00      362     13.3
    04/24/2015 08:30      4.9      146     10.0      157     59.9     60.4     59.4       62     1014     0.00      197     13.3
    04/24/2015 08:45      4.1      144      8.1      142     59.8     60.1     59.5       63     1014     0.00      171     13.3
    04/24/2015 09:00      4.0      146      8.0      144     59.6     60.1     59.2       62     1014     0.00      153     13.3
    04/24/2015 09:15      3.5      141      6.9      178     60.0     60.4     59.8       62     1014     0.00      106     13.3
    04/24/2015 09:30      4.6      148     10.6      163     59.5     60.0     59.2       63     1014     0.00       96     13.3
    04/24/2015 09:45      4.6      144      9.7      150     59.5     59.7     59.2       64     1015     0.00      102     13.3
    04/24/2015 10:00      4.8      161      9.3      184     59.2     59.7     58.9       65     1015     0.00      123     13.3
    04/24/2015 10:15      4.7      171      8.9      175     59.1     59.5     58.8       64     1015     0.00      138     13.3
    04/24/2015 10:30      3.9      148      7.7      141     59.4     60.0     58.9       63     1015     0.00      163     13.3
    04/24/2015 10:45      3.6      147      8.3      217     60.1     60.5     59.8       63     1015     0.00      198     13.3
    04/24/2015 11:00      4.5      156      8.2      147     60.2     60.7     59.8       62     1015     0.00      231     13.3
    04/24/2015 11:15      2.8      133      6.2      196     60.7     60.9     60.2       61     1014     0.00      165     13.3
    04/24/2015 11:30      4.2      141      9.4      132     60.2     60.7     59.7       63     1014     0.00      127     13.3
    04/24/2015 11:45      4.0      151      7.3      145     60.3     60.9     59.8       63     1014     0.00      223     13.3
    04/24/2015 12:00      3.8      120      8.9      162     61.2     61.7     60.7       59     1014     0.00      341     13.3
    04/24/2015 12:15      4.0      140      8.9      149     62.2     62.7     61.5       58     1014     0.00      274     13.3
    04/24/2015 12:30      3.0      131      8.2      159     62.2     62.6     61.9       58     1014     0.00      198     13.3
    04/24/2015 12:45      3.1      139      8.2      149     62.4     63.0     61.9       57     1014     0.00      180     13.3
    04/24/2015 13:00      3.4      133      6.4      130     62.9     64.5     62.1       55     1014     0.00      389     13.3
    04/24/2015 13:15      4.4      140      9.4      144     63.6     64.5     63.3       55     1014     0.00      308     13.3
    04/24/2015 13:30      3.6      126     10.0      129     62.8     63.4     62.5       58     1014     0.00      115     13.3
    04/24/2015 13:45      3.7      131      7.7      110     62.1     62.6     61.7       58     1014     0.00       49     13.3
    04/24/2015 14:00      5.2      151      9.3      147     61.9     62.2     61.6       59     1014     0.00       39     13.3
    04/24/2015 14:15      3.9      198      7.5      179     61.5     61.9     61.2       60     1014     0.00       44     13.3
    04/24/2015 14:30      4.2      194      7.9      169     61.4     61.7     61.1       60     1014     0.00       42     13.3
    04/24/2015 14:45      3.2      188      7.4      163     61.3     61.5     61.0       59     1013     0.00       38     13.3
    04/24/2015 15:00      2.1      221      5.4      222     61.3     61.5     61.1       59     1013     0.00       30     13.3
    04/24/2015 15:15      2.1      262      5.0      250     61.1     61.4     60.7       62     1013     0.00       35     13.3
    04/24/2015 15:30      3.4      277      7.4      283     60.4     60.9     60.1       63     1014     0.00       43     13.3
    04/24/2015 15:45      3.4      285      8.7      252     60.1     60.3     59.9       64     1014     0.00       32     13.3
    04/24/2015 16:00      2.7      281      5.6      250     60.0     60.3     59.9       63     1014     0.00       25     13.3
    04/24/2015 16:15      1.7      272      4.8      263     60.1     60.3     59.8       63     1014     0.00       26     13.4
    04/24/2015 16:30      1.6      283      4.6      261     60.2     60.3     59.9       63     1014     0.00       24     13.4
    04/24/2015 16:45      2.1      275      5.4      255     60.2     60.4     60.0       63     1014     0.00       26     13.4
    04/24/2015 17:00      2.3      271      5.2      258     60.2     60.4     60.0       64     1014     0.00       25     13.4
    04/24/2015 17:15      1.7      266      5.0      238     60.1     60.3     59.9       64     1014     0.00       20     13.4
    04/24/2015 17:30      1.4      271      4.5      237     59.9     60.2     59.6       64     1014     0.00       33     13.4
    04/24/2015 17:45      1.4      285      3.9      297     59.9     60.1     59.8       64     1014     0.00       28     13.4
    04/24/2015 18:00      1.0      296      2.8      348     60.1     60.3     59.9       64     1014     0.00       26     13.4
    04/24/2015 18:15      0.8      300      3.1      295     60.0     60.3     59.7       64     1014     0.00       13     13.4
    04/24/2015 18:30      0.1      290      1.8      302     59.8     60.0     59.6       64     1014     0.00        7     13.4
    04/24/2015 18:45      0.1      287      1.4      293     59.7     59.9     59.5       64     1014     0.00        1     13.4
    04/24/2015 19:00      0.3      153      2.8      152     59.6     59.8     59.4       65     1014     0.00        0     13.4
    04/24/2015 19:15      0.4      161      1.8      135     59.5     59.8     59.3       65     1014     0.00        0     13.4
    04/24/2015 19:30      0.0      263      1.0      255     59.4     59.6     59.2       66     1014     0.00        0     13.4
    04/24/2015 19:45      0.1      334      1.5      270     59.3     59.5     59.2       65     1014     0.00        0     13.4
    04/24/2015 20:00      0.1       39      1.2       47     59.2     59.4     59.0       65     1014     0.00        0     13.4
    04/24/2015 20:15      1.4       73      4.2       96     59.2     59.4     59.1       65     1014     0.00        0     13.4
    04/24/2015 20:30      2.0       81      3.8       61     59.0     59.2     58.9       66     1015     0.00        0     13.4
    04/24/2015 20:45      1.6       90      3.7      109     59.0     59.2     58.8       66     1015     0.00        0     13.4
    04/24/2015 21:00      2.8       79      5.8       67     58.7     59.0     58.4       67     1015     0.00        0     13.4
    04/24/2015 21:15      1.3      102      4.5       92     58.4     58.6     58.2       68     1015     0.00        0     13.4
    04/24/2015 21:30      1.6       87      4.2       62     58.2     58.4     58.0       68     1015     0.00        0     13.4
    04/24/2015 21:45      1.3      108      3.4      102     58.1     58.2     57.9       68     1015     0.00        0     13.4
    04/24/2015 22:00      1.4       91      4.0       81     58.0     58.3     57.8       68     1014     0.00        0     13.4
    04/24/2015 22:15      0.8       94      2.8       76     57.6     58.1     57.0       70     1014     0.00        0     13.4
    04/24/2015 22:30      1.3       77      3.0       85     57.1     57.4     56.9       70     1014     0.00        0     13.4
    04/24/2015 22:45      0.8       61      2.9       50     56.9     57.1     56.8       70     1014     0.00        0     13.4
    04/24/2015 23:00      1.6       62      3.1       70     57.0     57.2     56.8       70     1014     0.00        0     13.4
    04/24/2015 23:15      1.1       68      3.6       77     57.0     57.2     56.8       70     1014     0.00        0     13.4
    04/24/2015 23:30      1.2       77      3.0       73     56.9     57.1     56.6       71     1014     0.00        0     13.4
    04/24/2015 23:45      0.8       44      2.2       71     56.5     56.8     56.1       73     1014     0.00        0     13.4
    04/25/2015 00:00      0.8      112      1.9      112     56.1     56.4     55.5       74     1014     0.00        0     13.4
    04/25/2015 00:15      0.6      146      1.6      139     55.3     55.7     54.9       76     1014     0.00        0     13.4
    04/25/2015 00:30      0.0      360      0.7       -0     54.7     55.2     54.2       78     1014     0.00        0     13.5
    04/25/2015 00:45      0.0      327      0.6      327     54.1     54.5     53.8       79     1014     0.00        0     13.5
    04/25/2015 01:00      0.3      319      1.3      323     53.6     54.0     53.3       81     1014     0.00        0     13.5
    04/25/2015 01:15      0.1      319      0.8      316     53.1     53.5     52.4       82     1014     0.00        0     13.5
    04/25/2015 01:30      0.2      334      0.8      344     52.5     52.7     52.2       83     1014     0.00        0     13.5
    04/25/2015 01:45      0.2       65      1.5       80     52.2     52.6     51.8       84     1014     0.00        0     13.5
    04/25/2015 02:00      1.3       57      2.9       61     52.5     53.0     51.9       82     1014     0.00        0     13.5
    04/25/2015 02:15      0.4       73      1.8       24     52.9     53.2     52.6       81     1013     0.00        0     13.5
    04/25/2015 02:30      0.1      353      1.2      341     52.6     52.9     52.3       82     1013     0.00        0     13.5
    04/25/2015 02:45      0.0      281      0.7      287     52.9     53.3     52.6       82     1014     0.00        0     13.5
    04/25/2015 03:00      0.0        0      0.0      293     53.2     53.4     53.0       81     1014     0.00        0     13.5
    04/25/2015 03:15      0.4      279      1.3      256     53.5     53.8     53.2       81     1014     0.00        0     13.5
    04/25/2015 03:30      0.1       60      1.6       41     53.7     54.0     53.5       80     1013     0.00        0     13.5
    04/25/2015 03:45      0.7       76      2.5       50     54.1     54.5     53.7       78     1013     0.00        0     13.5
    04/25/2015 04:00      0.5      159      2.1      163     54.3     54.5     54.1       79     1013     0.00        0     13.5
    04/25/2015 04:15      0.8      178      2.0      162     54.2     54.4     53.9       79     1013     0.00        0     13.5
    04/25/2015 04:30      0.0        0      0.0      211     54.0     54.3     53.9       79     1013     0.00        0     13.5
    04/25/2015 04:45      0.0        0      0.0      170     54.0     54.3     53.8       79     1013     0.00        0     13.5
    04/25/2015 05:00      0.0        0      0.0      275     54.0     54.3     53.9       79     1013     0.00        0     13.5
    04/25/2015 05:15      0.3      126      1.6      134     54.1     54.3     53.9       79     1013     0.00        1     13.5
    04/25/2015 05:30      0.6       97      2.3      100     54.1     54.3     53.9       79     1013     0.00        5     13.5
    04/25/2015 05:45      0.6      168      1.8      164     53.9     54.3     53.5       80     1013     0.00       15     13.5
    04/25/2015 06:00      1.1      171      2.3      191     53.4     53.6     53.2       80     1013     0.00       25     13.5
    04/25/2015 06:15      0.2      201      1.0      193     53.5     53.8     53.2       79     1013     0.00       49     13.5
    04/25/2015 06:30      0.3      251      1.8      246     53.7     53.9     53.5       78     1013     0.00       38     13.5
    04/25/2015 06:45      0.6      217      2.1      211     53.7     53.9     53.4       79     1014     0.00       58     13.5
    04/25/2015 07:00      0.7      253      2.6      248     53.9     54.5     53.4       77     1014     0.00      147     13.5
    04/25/2015 07:15      1.1      255      3.4      266     55.1     55.5     54.4       72     1014     0.00      213     13.4
    04/25/2015 07:30      0.8      234      2.9      235     56.2     56.8     55.2       69     1014     0.00      198     13.4
    04/25/2015 07:45      0.7      165      4.0      144     56.6     57.2     56.3       68     1014     0.00      192     13.4
    04/25/2015 08:00      1.6      155      4.7      152     57.8     59.0     56.9       64     1014     0.00      398     13.4
    04/25/2015 08:15      1.9       80      4.4       68     58.6     59.0     58.3       62     1014     0.00      363     13.3
    04/25/2015 08:30      2.7       90      5.5       96     59.0     59.4     58.7       61     1014     0.00      359     13.3
    04/25/2015 08:45      3.1       84      7.5       93     59.5     60.1     59.1       61     1013     0.00      398     13.3
    04/25/2015 09:00      3.0       89      8.2       56     61.0     61.5     60.1       59     1014     0.00      465     13.3
    04/25/2015 09:15      3.6      114      9.7      161     60.6     61.1     60.3       59     1013     0.00      358     13.3
    04/25/2015 09:30      4.7      106     10.3      136     61.2     61.7     60.7       57     1013     0.00      437     13.3
    04/25/2015 09:45      4.2      115     10.4       96     61.7     62.4     61.1       55     1014     0.00      342     13.3
    04/25/2015 10:00      3.3      114      7.8      127     61.8     62.2     61.0       55     1013     0.00      201     13.3
    04/25/2015 10:15      3.6      109      9.2      161     61.0     61.2     60.6       55     1013     0.00      117     13.3
    04/25/2015 10:30      3.8      123      9.3      106     60.6     60.9     60.0       57     1013     0.00      100     13.3
    04/25/2015 10:45      3.8      127      7.4      109     60.4     60.8     60.0       58     1013     0.00      160     13.3
    04/25/2015 11:00      2.8      142      7.6      238     60.8     61.1     60.5       59     1013     0.00      183     13.3
    04/25/2015 11:15      5.2      216     14.3      207     61.9     63.0     60.9       54     1013     0.00      382     13.3
    04/25/2015 11:30      5.9      221     13.9      249     63.1     63.7     62.3       55     1013     0.00      558     13.3
    04/25/2015 11:45      5.6      249     13.2      244     62.3     63.8     60.9       59     1013     0.00      241     13.3
    04/25/2015 12:00      4.0      238     12.7      267     61.2     61.9     60.6       60     1012     0.00      209     13.3
    04/25/2015 12:15      4.2      226     10.3      191     61.2     61.7     60.8       61     1012     0.00      112     13.3
    04/25/2015 12:30      4.6      245     11.7      251     61.0     61.4     60.6       63     1012     0.00       92     13.3
    04/25/2015 12:45      3.7      226      9.7      195     60.9     61.4     60.4       63     1012     0.00      106     13.3
    04/25/2015 13:00      3.1      226      9.2      250     61.3     61.7     61.0       64     1012     0.00       75     13.3
    04/25/2015 13:15      5.5      238     13.8      237     61.4     61.9     61.0       67     1012     0.00      159     13.3
    04/25/2015 13:30      4.8      232     10.6      270     61.3     61.5     60.9       68     1012     0.00      153     13.3
    04/25/2015 13:45      4.6      228     13.5      243     60.8     61.2     60.4       72     1012     0.00      153     13.3
    04/25/2015 14:00      3.8      234     10.7      260     60.7     61.4     60.1       70     1011     0.00      201     13.3
    04/25/2015 14:15      3.9      216      9.5      184     59.7     61.2     58.8       77     1011     0.00      109     13.3
    04/25/2015 14:30      4.4      252     10.6      267     59.1     59.4     58.5       80     1011     0.00       65     13.3
    04/25/2015 14:45      2.2      262      6.6      249     58.8     59.0     58.5       79     1011     0.00       67     13.4
    04/25/2015 15:00      1.9      192      6.0      241     59.5     60.0     58.9       79     1010     0.00       77     13.4
    04/25/2015 15:15      3.3       77      6.7       78     58.8     60.0     58.0       82     1010     0.00       61     13.4
    04/25/2015 15:30      3.9       44      6.9       44     57.7     58.3     57.3       83     1010     0.00       53     13.4
    04/25/2015 15:45      3.5       53      7.0       37     58.5     59.2     57.8       78     1010     0.00       48     13.4
    04/25/2015 16:00      2.4       83      3.9       61     59.6     60.2     58.9       74     1010     0.00       42     13.4
    04/25/2015 16:15      3.3       73      6.2       55     60.0     60.4     59.5       76     1010     0.00       39     13.4
    04/25/2015 16:30      2.1       71      5.1       48     60.0     60.5     59.6       75     1010     0.00       53     13.4
    04/25/2015 16:45      1.8      134      6.8      159     60.5     61.0     60.0       70     1009     0.00       58     13.4
    04/25/2015 17:00      2.0      218      6.3      194     61.5     62.0     60.8       61     1009     0.00       81     13.3
    04/25/2015 17:15      3.6      196      8.4      184     61.6     61.9     61.1       62     1009     0.00       41     13.3
    04/25/2015 17:30      2.8      156      6.4      161     60.7     61.4     60.0       68     1010     0.00       33     13.3
    04/25/2015 17:45      3.4      181      6.5      157     60.6     61.0     60.2       62     1010     0.00       47     13.3
    04/25/2015 18:00      2.7      188      5.0      164     61.2     61.7     60.8       61     1010     0.00       70     13.3
    04/25/2015 18:15      3.5      190      6.1      190     61.1     61.7     60.6       61     1010     0.00       48     13.3
    04/25/2015 18:30      3.4      196      7.1      198     60.5     60.8     60.1       61     1010     0.00       12     13.3
    04/25/2015 18:45      3.1      216      9.2      179     59.7     60.3     59.1       62     1010     0.00        3     13.4
    04/25/2015 19:00      3.4      247      6.8      263     59.1     59.4     58.8       63     1010     0.00        0     13.4
    04/25/2015 19:15      3.5      254      7.5      255     58.6     59.1     58.2       64     1010     0.00        0     13.4
    04/25/2015 19:30      2.2      256      4.4      255     58.0     58.5     57.5       65     1010     0.00        0     13.4
    04/25/2015 19:45      1.4      233      6.0      257     57.3     57.8     56.8       66     1010     0.00        0     13.4
    04/25/2015 20:00      1.6      232      6.3      253     56.6     56.9     56.1       67     1011     0.00        0     13.4
    04/25/2015 20:15      1.7      237      6.4      256     55.9     56.4     55.5       69     1011     0.00        0     13.4
    04/25/2015 20:30      2.7      225      5.8      224     55.7     56.0     55.5       69     1011     0.00        0     13.4
    04/25/2015 20:45      4.6      166      8.6      186     55.2     55.6     54.9       71     1011     0.00        0     13.5
    04/25/2015 21:00      3.4      184      6.4      170     54.7     55.0     54.3       71     1011     0.00        0     13.5
    04/25/2015 21:15      2.6      220      7.8      262     54.5     54.7     54.2       71     1011     0.00        0     13.5
    04/25/2015 21:30      2.2      269      5.8      257     54.4     54.6     54.0       72     1011     0.00        0     13.5
    04/25/2015 21:45      2.7      277      6.1      302     54.1     54.3     53.8       72     1011     0.00        0     13.5
    04/25/2015 22:00      2.0      281      7.0      335     54.3     55.1     53.7       70     1011     0.00        0     13.5
    04/25/2015 22:15      1.1      296      5.5      290     54.5     55.0     54.1       71     1011     0.00        0     13.5
    04/25/2015 22:30      2.2      290      5.5      284     54.3     54.8     53.8       68     1011     0.00        0     13.5
    04/25/2015 22:45      3.1      215      8.0      196     54.4     55.0     53.4       72     1011     0.00        0     13.5
    04/25/2015 23:00      2.7      258      7.5      211     53.4     53.6     53.2       72     1011     0.00        0     13.5
    04/25/2015 23:15      2.6       36      6.7       21     53.5     53.7     53.2       71     1011     0.00        0     13.5
    04/25/2015 23:30      2.0      283      6.2      337     53.8     54.1     53.6       71     1012     0.00        0     13.5
    04/25/2015 23:45      1.5      347      5.0      285     53.5     53.9     53.1       70     1012     0.00        0     13.5
    04/26/2015 00:00      1.7      252      5.2      287     54.0     54.4     53.5       68     1012     0.00        0     13.5
    04/26/2015 00:15      3.1      295      6.8      281     54.5     55.2     54.1       63     1012     0.00        0     13.5
    04/26/2015 00:30      3.8      296      7.6      297     58.0     59.6     55.2       46     1011     0.00        0     13.5
    04/26/2015 00:45      4.8      325     14.6      336     61.9     64.3     59.5       31     1011     0.00        0     13.5
    04/26/2015 01:00      2.8      323     12.2      329     63.3     64.2     62.7       33     1011     0.00        0     13.4
    04/26/2015 01:15      4.1      198      8.5      164     61.0     62.9     59.5       43     1011     0.00        0     13.4
    04/26/2015 01:30      3.0      295      9.0      301     59.6     61.4     58.9       35     1011     0.00        0     13.4
    04/26/2015 01:45      5.6      318     21.2      355     62.1     62.5     61.4       33     1011     0.00        0     13.4
    04/26/2015 02:00      6.4      323     21.1      332     62.1     62.5     61.9       35     1011     0.00        0     13.4
    04/26/2015 02:15      8.6      355     22.1      319     61.7     62.1     61.2       37     1011     0.00        0     13.4
    04/26/2015 02:30      8.0        6     21.4      339     61.1     61.5     60.9       37     1011     0.00        0     13.4
    04/26/2015 02:45      7.0      353     21.1        2     60.9     61.3     60.4       40     1012     0.00        0     13.4
    04/26/2015 03:00      7.9      347     21.2       45     60.6     60.8     60.3       39     1012     0.00        0     13.4
    04/26/2015 03:15      8.8      357     18.4        5     60.4     60.7     60.2       40     1012     0.00        0     13.4
    04/26/2015 03:30      8.7      354     21.1      341     60.2     60.4     59.9       40     1012     0.00        0     13.4
    04/26/2015 03:45      8.3      351     18.7      350     60.1     60.4     59.9       41     1012     0.00        0     13.4
    04/26/2015 04:00      9.2      341     19.9       32     60.3     60.7     59.9       40     1012     0.00        0     13.4
    04/26/2015 04:15      5.6      352     16.4      315     60.3     60.6     60.0       40     1012     0.00        0     13.4
    04/26/2015 04:30      7.5      354     17.8      343     60.3     60.5     60.1       40     1013     0.00        0     13.4
    04/26/2015 04:45      7.1      351     19.9        8     60.5     60.9     60.2       37     1013     0.00        0     13.4
    04/26/2015 05:00      7.1      335     16.5      352     60.7     61.0     60.4       38     1013     0.00        0     13.4
    04/26/2015 05:15      5.9      350     13.8      333     60.5     60.7     60.0       41     1013     0.00        4     13.4
    04/26/2015 05:30      6.2       15     13.5       43     59.5     60.1     58.7       44     1013     0.00        9     13.4
    04/26/2015 05:45      7.2       40     13.1       20     59.0     59.2     58.8       44     1014     0.00       16     13.4
    04/26/2015 06:00      5.4       10     11.8       57     59.3     59.7     59.1       42     1014     0.00       24     13.4
    04/26/2015 06:15      5.5      344     12.6      348     60.2     60.7     59.6       41     1014     0.00      132     13.4
    04/26/2015 06:30      6.3      346     14.3      334     60.7     61.1     60.4       40     1014     0.00      182     13.4
    04/26/2015 06:45      6.5      334     20.5      337     61.0     61.4     60.8       40     1014     0.00      224     13.4
    04/26/2015 07:00      6.6      326     17.1      335     61.5     61.8     61.1       40     1014     0.00      271     13.3
    04/26/2015 07:15      6.1      319     14.5      311     61.9     62.3     61.6       39     1014     0.00      343     13.3
    04/26/2015 07:30      6.2      318     15.1      326     62.4     62.6     62.0       37     1014     0.00      355     13.3
    04/26/2015 07:45      5.8      327     15.3      335     63.4     63.9     62.6       35     1014     0.00      429     13.3
    04/26/2015 08:00      5.7      326     15.5      320     64.1     64.9     63.7       34     1014     0.00      463     13.3
    04/26/2015 08:15      5.3      347     12.5        7     65.2     65.5     64.7       33     1014     0.00      530     13.3
    04/26/2015 08:30      5.5      346     17.1      325     65.8     66.4     65.4       32     1014     0.00      572     13.3
    04/26/2015 08:45      6.2      343     16.8       94     66.2     66.8     65.7       32     1014     0.00      610     13.3
    04/26/2015 09:00      7.2      337     16.4      336     66.7     67.2     66.3       30     1014     0.00      659     13.2
    04/26/2015 09:15      6.6      331     15.1      346     67.4     68.1     66.6       29     1014     0.00      694     13.2
    04/26/2015 09:30      6.2      346     16.2      331     68.5     69.2     67.8       28     1014     0.00      730     13.2
    04/26/2015 09:45      5.4      339     12.9      320     69.4     70.0     69.0       27     1015     0.00      764     13.2
    04/26/2015 10:00      3.5      340     10.0        3     70.8     72.1     69.8       24     1015     0.00      795     13.2
    04/26/2015 10:15      4.5      358     12.4      340     71.0     71.8     70.6       24     1014     0.00      792     13.2
    04/26/2015 10:30      4.2      312     10.8      300     71.8     72.3     71.3       23     1014     0.00      846     13.2
    04/26/2015 10:45      4.4      294      9.9      253     72.3     73.3     71.4       23     1014     0.00      862     13.1
    04/26/2015 11:00      3.6      317      9.2      315     73.3     74.2     72.5       22     1014     0.00      877     13.1
    04/26/2015 11:15      2.5      320     10.1      336     74.3     75.0     73.7       19     1014     0.00      891     13.1
    04/26/2015 11:30      3.0      336      8.1      340     74.2     74.9     73.6       18     1014     0.00      903     13.1
    04/26/2015 11:45      3.5        6      9.0      317     74.3     75.6     73.5       18     1013     0.00      896     13.1
    04/26/2015 12:00      3.0      302      7.3      293     75.5     76.4     74.7       17     1013     0.00      910     13.1
    04/26/2015 12:15      3.6      326     11.2      335     76.0     77.3     75.0       16     1013     0.00      900     13.1
    04/26/2015 12:30      4.1      347     13.6      351     76.3     77.7     75.5       17     1013     0.00      883     13.1
    04/26/2015 12:45      4.1      354     11.2        6     76.7     77.5     76.0       16     1013     0.00      874     13.1
    04/26/2015 13:00      3.7      318     12.4      272     77.5     78.2     76.9       15     1013     0.00      786     13.1
    04/26/2015 13:15      4.4      331     12.8      341     77.7     78.5     76.9       13     1013     0.00      811     13.1
    04/26/2015 13:30      4.3      329     14.0      334     78.0     78.6     77.4       14     1013     0.00      776     13.1
    04/26/2015 13:45      5.3      314     13.6      352     78.3     79.0     77.6       13     1012     0.00      797     13.1
    04/26/2015 14:00      6.7      305     13.4      241     78.2     78.8     77.7       13     1012     0.00      776     13.1
    04/26/2015 14:15      7.3      300     17.6       13     77.6     78.2     76.9       13     1012     0.00      732     13.1
    04/26/2015 14:30      7.1      300     20.5      349     77.2     78.1     76.5       12     1012     0.00      741     13.1
    04/26/2015 14:45      7.1      310     16.9      347     77.1     77.9     76.4       13     1012     0.00      706     13.1
    04/26/2015 15:00      7.1      321     20.6      334     76.6     77.4     76.0       13     1012     0.00      654     13.1
    04/26/2015 15:15      9.1      332     21.8      336     76.7     77.4     76.0       14     1012     0.00      582     13.1
    04/26/2015 15:30      8.0      323     20.3      341     76.3     76.8     75.8       14     1012     0.00      555     13.1
    04/26/2015 15:45      7.0      319     22.1      336     75.9     76.3     75.3       15     1011     0.00      502     13.1
    04/26/2015 16:00      6.4      310     15.8      305     75.9     76.3     75.5       15     1011     0.00      457     13.1
    04/26/2015 16:15      6.3      318     16.6      328     75.8     76.1     75.4       16     1011     0.00      419     13.1
    04/26/2015 16:30      8.0      325     21.7      338     75.3     76.1     74.6       16     1011     0.00      364     13.1
    04/26/2015 16:45      8.2      323     21.8      324     74.8     75.2     74.1       16     1011     0.00      306     13.1
    04/26/2015 17:00      9.3      320     22.8      327     73.8     74.4     73.3       17     1011     0.00      238     13.1
    04/26/2015 17:15      8.0      331     19.3      345     73.2     73.5     72.9       18     1011     0.00      216     13.1
    04/26/2015 17:30      5.0      332     16.6      322     72.9     73.3     72.6       18     1011     0.00      144     13.2
    04/26/2015 17:45      3.4      305     12.2      343     73.1     73.4     72.7       17     1011     0.00      143     13.2
    04/26/2015 18:00      2.5      297      8.1      326     72.7     73.1     72.2       17     1011     0.00      102     13.2
    04/26/2015 18:15      1.4      263      5.3      271     71.9     72.5     71.4       18     1011     0.00       40     13.2
    04/26/2015 18:30      0.7      265      4.8      250     71.2     71.7     70.6       21     1011     0.00       15     13.2
    04/26/2015 18:45      0.9      279      3.9      267     70.0     70.6     69.6       21     1011     0.00        4     13.2
    04/26/2015 19:00      0.9      295      4.4       23     69.4     69.8     68.9       22     1011     0.00        1     13.3
    04/26/2015 19:15      0.7      273      2.7      286     68.4     69.0     68.0       23     1011     0.00        0     13.3
    04/26/2015 19:30      2.6      264     10.3      302     68.3     69.1     67.8       22     1011     0.00        0     13.3
    04/26/2015 19:45      3.0      278     10.4      233     68.7     69.2     68.2       23     1011     0.00        0     13.3
    04/26/2015 20:00      3.7      291     10.5      260     68.4     68.7     68.1       23     1011     0.00        0     13.3
    04/26/2015 20:15      3.1      323     10.2       61     68.4     68.7     68.0       23     1012     0.00        0     13.3
    04/26/2015 20:30      3.0      342     10.8      334     68.5     68.7     68.3       23     1012     0.00        0     13.3
    04/26/2015 20:45      1.6       38      6.9       93     68.3     68.7     68.0       24     1012     0.00        0     13.3
    04/26/2015 21:00      3.9      339     12.6      338     67.9     68.1     67.7       24     1012     0.00        0     13.3
    04/26/2015 21:15      5.7      352     16.4      332     68.0     68.3     67.7       24     1012     0.00        0     13.3
    04/26/2015 21:30      6.0      347     14.5        9     67.8     68.1     67.6       24     1012     0.00        0     13.3
    04/26/2015 21:45      6.0      343     13.6      340     68.1     68.4     67.7       25     1012     0.00        0     13.3
    04/26/2015 22:00      3.4      357     10.8      343     67.7     68.0     67.3       26     1012     0.00        0     13.3
    04/26/2015 22:15      5.4      354     13.6       56     67.7     68.1     67.3       25     1012     0.00        0     13.3
    04/26/2015 22:30      5.1      330     11.9        0     67.7     68.0     67.5       25     1012     0.00        0     13.3
    04/26/2015 22:45      3.9      335      8.0      338     67.3     67.9     66.7       27     1012     0.00        0     13.3
    04/26/2015 23:00      3.1      125      8.2      151     64.4     66.8     62.8       46     1012     0.00        0     13.3
    04/26/2015 23:15      1.9      100      6.0       96     62.6     63.1     62.0       51     1012     0.00        0     13.3
    04/26/2015 23:30      1.2      107      4.4       84     61.5     62.1     60.9       53     1013     0.00        0     13.4
    04/26/2015 23:45      0.6      105      3.0      112     60.8     61.4     60.3       54     1013     0.00        0     13.4
    04/27/2015 00:00      1.2       26      2.6       88     60.6     60.8     60.4       54     1013     0.00        0     13.4
    04/27/2015 00:15      0.7      360      3.8      348     60.2     60.6     59.8       56     1013     0.00        0     13.4
    04/27/2015 00:30      1.0       22      3.3       65     59.9     60.2     59.5       56     1012     0.00        0     13.4
    04/27/2015 00:45      1.1       14      4.4       43     59.2     59.7     58.8       57     1012     0.00        0     13.4
    04/27/2015 01:00      1.2      321      4.5      335     58.7     59.2     58.4       58     1012     0.00        0     13.4
    04/27/2015 01:15      0.9      323      4.3      337     58.1     58.6     57.4       60     1012     0.00        0     13.4
    04/27/2015 01:30      2.1      306      5.0      289     58.5     59.1     57.5       55     1012     0.00        0     13.4
    04/27/2015 01:45      1.5      308      3.5      298     58.9     59.6     58.5       49     1012     0.00        0     13.4
    04/27/2015 02:00      1.4       83      3.5       96     59.5     60.0     59.0       55     1012     0.00        0     13.4
    04/27/2015 02:15      1.6       16      5.3      335     59.0     59.3     58.8       50     1012     0.00        0     13.4
    04/27/2015 02:30      3.2      337      8.6      327     62.9     66.0     59.2       29     1012     0.00        0     13.4
    04/27/2015 02:45      5.1      339     15.5      335     66.8     67.5     66.0       27     1012     0.00        0     13.4
    04/27/2015 03:00      5.9      340     15.5      323     67.3     67.6     67.0       27     1012     0.00        0     13.4
    04/27/2015 03:15      6.6      335     16.8      333     67.0     67.4     66.6       27     1012     0.00        0     13.4
    04/27/2015 03:30      5.6      331     14.5      334     66.6     66.9     66.3       27     1012     0.00        0     13.4
    04/27/2015 03:45      4.3      318     11.6      348     66.2     66.6     66.0       27     1012     0.00        0     13.4
    04/27/2015 04:00      4.3      322     11.9      338     66.5     66.9     66.1       24     1012     0.00        0     13.4
    04/27/2015 04:15      5.4      334     13.5      323     67.2     67.7     66.7       21     1012     0.00        0     13.4
    04/27/2015 04:30      5.0      335     13.2      352     67.8     68.2     67.5       18     1012     0.00        0     13.4
    04/27/2015 04:45      4.3      335     12.3      327     68.0     68.3     67.7       17     1012     0.00        0     13.4
    04/27/2015 05:00      4.1      336     12.8      338     68.0     68.2     67.7       17     1012     0.00        0     13.4
    04/27/2015 05:15      4.8      340     12.8      326     68.1     68.4     67.7       16     1012     0.00        3     13.4
    04/27/2015 05:30      3.3      350      9.7      337     68.1     68.3     67.8       16     1012     0.00        9     13.3
    04/27/2015 05:45      3.6      347     11.9      313     68.6     68.9     68.1       16     1012     0.00       18     13.4
    04/27/2015 06:00      3.9      348     12.7      355     69.1     69.7     68.6       15     1012     0.00       31     13.3
    04/27/2015 06:15      4.9      358     13.0       41     70.3     71.2     69.5       14     1013     0.00      140     13.3
    04/27/2015 06:30      5.4      355     15.1      349     71.5     71.7     71.0       14     1013     0.00      186     13.3
    04/27/2015 06:45      5.4      352     15.3      321     72.4     73.2     71.6       14     1013     0.00      230     13.3
    04/27/2015 07:00      5.6        5     17.4       30     73.7     74.5     73.0       13     1013     0.00      289     13.3
    04/27/2015 07:15      5.9        6     16.5        8     74.5     74.8     74.2       13     1013     0.00      339     13.2
    04/27/2015 07:30      6.5       10     18.6        9     74.8     75.2     74.2       12     1013     0.00      390     13.2
    04/27/2015 07:45      6.8       10     18.0      333     75.2     75.8     74.7       12     1013     0.00      441     13.2
    04/27/2015 08:00      6.8       20     18.7       39     75.8     76.0     75.4       11     1013     0.00      491     13.2
    04/27/2015 08:15      7.5       24     18.6       37     76.1     76.7     75.8       11     1014     0.00      539     13.2
    04/27/2015 08:30      6.3        7     19.2        8     76.8     77.6     76.3       11     1014     0.00      585     13.2
    04/27/2015 08:45      6.7        8     22.6       76     77.4     77.9     76.9       11     1014     0.00      629     13.2
    04/27/2015 09:00      6.5        3     16.9      343     78.1     78.4     77.8       11     1014     0.00      671     13.1
    04/27/2015 09:15      6.1        5     19.6       84     78.7     79.3     77.9       11     1014     0.00      710     13.1
    04/27/2015 09:30      7.6        2     18.3      342     79.0     79.4     78.6       10     1014     0.00      748     13.1
    04/27/2015 09:45      8.8      352     28.9      333     78.7     79.1     78.2       11     1013     0.00      781     13.1
    04/27/2015 10:00      8.9        0     20.2       11     78.8     79.6     78.2       10     1013     0.00      811     13.1
    04/27/2015 10:15      9.1      353     21.5      327     79.3     80.0     78.9       10     1013     0.00      839     13.1
    04/27/2015 10:30      8.2      355     22.1       88     79.9     80.3     79.4       10     1013     0.00      862     13.1
    04/27/2015 10:45      8.4      358     17.6      348     80.4     80.9     79.9        9     1013     0.00      884     13.1
    04/27/2015 11:00      6.7        9     15.6      298     80.9     81.7     80.5        9     1013     0.00      898     13.1
    04/27/2015 11:15      7.7        9     19.0       43     81.7     82.2     81.0        9     1013     0.00      913     13.1
    04/27/2015 11:30      6.9       16     23.0        1     81.8     83.0     81.1        9     1013     0.00      919     13.1
    04/27/2015 11:45      8.4        4     22.7      344     82.8     83.9     82.2        8     1012     0.00      928     13.1
    04/27/2015 12:00      7.6        1     20.1      341     83.4     83.9     82.9        8     1012     0.00      929     13.1
    04/27/2015 12:15      7.7      355     19.9       16     83.8     84.3     83.5        8     1012     0.00      915     13.1
    04/27/2015 12:30      6.0      358     15.1      335     84.4     84.9     83.8        7     1012     0.00      903     13.1
    04/27/2015 12:45      5.9       26     16.1       34     84.9     85.3     84.4        7     1012     0.00      912     13.1
    04/27/2015 13:00      8.9       29     19.6      322     85.1     86.1     84.4        7     1012     0.00      899     13.0